createdAt,value
2022-08-10T00:01:11.395Z,101757.97
2022-08-10T00:04:15.563Z,101767.31
2022-08-10T00:07:22.985Z,101767.03
2022-08-10T00:10:24.958Z,101771.94
2022-08-10T00:13:26.949Z,101771.22
2022-08-10T00:16:28.668Z,101771.66
2022-08-10T00:20:04.076Z,101776.22
2022-08-10T00:22:54.957Z,101769.09
2022-08-10T00:26:00.480Z,101776.84
2022-08-10T00:29:02.081Z,101779.53
2022-08-10T00:32:04.271Z,101782.25
2022-08-10T00:35:06.682Z,101775.22
2022-08-10T00:38:11.164Z,101776.31
2022-08-10T00:41:13.020Z,101776.22
2022-08-10T00:44:14.806Z,101774.72
2022-08-10T00:47:36.287Z,101769.28
2022-08-10T00:50:39.124Z,101757.97
2022-08-10T00:53:41.228Z,101759.81
2022-08-10T00:57:17.502Z,101751.16
2022-08-10T01:00:09.748Z,101753.13
2022-08-10T01:03:15.082Z,101742.44
2022-08-10T01:06:35.518Z,101737.38
2022-08-10T01:09:42.933Z,101737.59
2022-08-10T01:13:22.166Z,101740.41
2022-08-10T01:16:36.120Z,101744.22
2022-08-10T01:20:06.383Z,101745.53
2022-08-10T01:23:26.662Z,101742.09
2022-08-10T01:26:53.318Z,101745.78
2022-08-10T01:30:12.443Z,101742.56
2022-08-10T01:33:58.167Z,101734.53
2022-08-10T01:37:03.355Z,101736.38
2022-08-10T01:40:09.960Z,101735.63
2022-08-10T01:43:13.554Z,101736.97
2022-08-10T01:46:17.766Z,101738.06
2022-08-10T01:49:23.161Z,101729.41
2022-08-10T01:52:27.725Z,101728.56
2022-08-10T01:55:30.169Z,101732.44
2022-08-10T01:58:35.565Z,101733.66
2022-08-10T02:01:47.917Z,101732.13
2022-08-10T02:04:52.836Z,101729.00
2022-08-10T02:07:56.970Z,101730.22
2022-08-10T02:11:01.646Z,101726.00
2022-08-10T02:14:03.913Z,101723.63
2022-08-10T02:18:00.466Z,101721.91
2022-08-10T02:20:45.223Z,101724.84
2022-08-10T02:23:54.093Z,101728.88
2022-08-10T02:27:05.712Z,101723.47
2022-08-10T02:30:08.884Z,101732.66
2022-08-10T02:33:11.482Z,101730.03
2022-08-10T02:36:14.824Z,101732.97
2022-08-10T02:39:18.651Z,101733.19
2022-08-10T02:45:29.920Z,101734.16
2022-08-10T02:46:08.384Z,101736.22
2022-08-10T02:49:18.300Z,101732.00
2022-08-10T02:52:24.830Z,101735.78
2022-08-10T02:55:46.257Z,101732.44
2022-08-10T02:58:57.525Z,101739.78
2022-08-10T03:02:03.703Z,101741.72
2022-08-10T03:05:09.615Z,101741.97
2022-08-10T03:08:13.531Z,101744.03
2022-08-10T03:12:35.972Z,101739.69
2022-08-10T03:14:46.594Z,101742.50
2022-08-10T03:17:56.821Z,101742.72
2022-08-10T03:21:00.313Z,101738.41
2022-08-10T03:24:02.970Z,101738.63
2022-08-10T03:27:24.986Z,101737.00
2022-08-10T03:30:32.454Z,101737.31
2022-08-10T03:33:38.709Z,101733.84
2022-08-10T03:36:44.933Z,101734.06
2022-08-10T03:39:46.936Z,101724.34
2022-08-10T03:42:51.719Z,101717.19
2022-08-10T03:45:57.240Z,101721.75
2022-08-10T03:49:02.206Z,101715.50
2022-08-10T03:52:06.708Z,101724.56
2022-08-10T03:55:08.917Z,101722.94
2022-08-10T03:58:11.584Z,101716.78
2022-08-10T04:01:14.664Z,101724.13
2022-08-10T04:04:22.784Z,101720.66
2022-08-10T04:07:26.709Z,101722.41
2022-08-10T04:10:29.172Z,101725.19
2022-08-10T04:13:30.833Z,101718.28
2022-08-10T04:16:32.401Z,101713.94
2022-08-10T04:19:40.790Z,101727.25
2022-08-10T04:22:44.487Z,101723.47
2022-08-10T04:25:46.202Z,101725.41
2022-08-10T04:28:48.969Z,101731.44
2022-08-10T04:31:52.741Z,101731.56
2022-08-10T04:34:56.613Z,101736.84
2022-08-10T04:38:00.481Z,101737.53
2022-08-10T04:41:02.421Z,101737.31
2022-08-10T04:44:05.056Z,101742.47
2022-08-10T04:47:06.649Z,101740.41
2022-08-10T04:50:10.414Z,101745.41
2022-08-10T04:53:12.405Z,101747.66
2022-08-10T04:56:13.996Z,101751.78
2022-08-10T04:59:15.611Z,101744.22
2022-08-10T05:02:30.714Z,101752.75
2022-08-10T05:05:33.759Z,101752.97
2022-08-10T05:08:35.327Z,101747.88
2022-08-10T05:11:36.950Z,101753.38
2022-08-10T05:14:38.559Z,101757.28
2022-08-10T05:18:03.199Z,101753.56
2022-08-10T05:21:03.603Z,101759.06
2022-08-10T05:24:05.732Z,101762.09
2022-08-10T05:27:10.097Z,101765.94
2022-08-10T05:30:15.799Z,101763.44
2022-08-10T05:33:17.693Z,101768.91
2022-08-10T05:36:20.379Z,101756.06
2022-08-10T05:39:30.578Z,101755.63
2022-08-10T05:42:34.481Z,101765.59
2022-08-10T05:46:17.288Z,101762.28
2022-08-10T05:49:00.926Z,101773.63
2022-08-10T05:52:03.875Z,101767.88
2022-08-10T05:55:06.258Z,101756.75
2022-08-10T05:58:08.053Z,101758.56
2022-08-10T06:01:13.551Z,101765.59
2022-08-10T06:04:26.586Z,101759.94
2022-08-10T06:07:30.431Z,101759.53
2022-08-10T06:10:35.822Z,101770.81
2022-08-10T06:14:18.431Z,101766.06
2022-08-10T06:17:23.214Z,101764.50
2022-08-10T06:20:25.053Z,101767.44
2022-08-10T06:23:29.714Z,101766.19
2022-08-10T06:26:31.317Z,101779.25
2022-08-10T06:29:35.605Z,101774.50
2022-08-10T06:32:37.847Z,101778.25
2022-08-10T06:35:41.147Z,101781.69
2022-08-10T06:38:44.702Z,101782.97
2022-08-10T06:41:57.761Z,101787.53
2022-08-10T06:45:15.376Z,101783.09
2022-08-10T06:48:40.716Z,101782.22
2022-08-10T06:51:44.285Z,101778.63
2022-08-10T06:55:00.685Z,101780.78
2022-08-10T06:58:04.659Z,101789.69
2022-08-10T07:01:12.736Z,101792.13
2022-08-10T07:04:35.382Z,101783.41
2022-08-10T07:07:40.918Z,101782.69
2022-08-10T07:10:46.257Z,101780.41
2022-08-10T07:14:17.034Z,101781.41
2022-08-10T07:17:20.235Z,101781.97
2022-08-10T07:20:23.903Z,101785.72
2022-08-10T07:23:57.559Z,101782.41
2022-08-10T07:26:52.444Z,101778.09
2022-08-10T07:29:55.757Z,101779.81
2022-08-10T07:32:58.802Z,101778.78
2022-08-10T07:36:01.653Z,101778.34
2022-08-10T07:39:05.299Z,101775.84
2022-08-10T07:42:09.915Z,101774.25
2022-08-10T07:45:11.876Z,101775.06
2022-08-10T07:48:22.706Z,101764.81
2022-08-10T07:51:26.165Z,101775.41
2022-08-10T07:54:31.169Z,101785.50
2022-08-10T07:57:40.012Z,101776.94
2022-08-10T08:00:45.483Z,101779.00
2022-08-10T08:04:05.303Z,101778.06
2022-08-10T08:07:12.679Z,101775.66
2022-08-10T08:10:17.463Z,101778.06
2022-08-10T08:13:22.090Z,101783.47
2022-08-10T08:16:25.022Z,101773.19
2022-08-10T08:19:37.159Z,101771.00
2022-08-10T08:24:07.659Z,101767.31
2022-08-10T08:26:07.596Z,101763.47
2022-08-10T08:29:12.569Z,101770.06
2022-08-10T08:32:22.249Z,101765.19
2022-08-10T08:35:26.459Z,101761.31
2022-08-10T08:38:34.331Z,101758.47
2022-08-10T08:41:53.789Z,101762.13
2022-08-10T08:45:31.621Z,101749.19
2022-08-10T08:48:54.584Z,101758.78
2022-08-10T08:52:18.594Z,101760.38
2022-08-10T08:56:05.987Z,101757.97
2022-08-10T08:59:31.073Z,101752.22
2022-08-10T09:02:54.826Z,101748.50
2022-08-10T09:06:10.456Z,101751.81
2022-08-10T09:09:46.226Z,101756.44
2022-08-10T09:13:04.843Z,101747.72
2022-08-10T09:16:24.484Z,101747.91
2022-08-10T09:19:47.134Z,101754.91
2022-08-10T09:23:08.152Z,101745.47
2022-08-10T09:26:22.226Z,101732.28
2022-08-10T09:29:28.411Z,101738.97
2022-08-10T09:36:15.038Z,101735.16
2022-08-10T09:36:35.462Z,101720.69
2022-08-10T09:41:00.848Z,101728.56
2022-08-10T09:43:42.341Z,101709.25
2022-08-10T09:48:01.310Z,101723.31
2022-08-10T09:54:38.269Z,101723.44
2022-08-10T09:58:15.200Z,101724.97
2022-08-10T10:02:04.606Z,101713.75
2022-08-10T10:05:36.839Z,101714.06
2022-08-10T10:08:45.475Z,101709.19
2022-08-10T10:12:10.161Z,101703.81
2022-08-10T10:15:28.408Z,101703.69
2022-08-10T10:18:29.954Z,101705.56
2022-08-10T10:21:54.478Z,101694.03
2022-08-10T10:25:19.717Z,101689.66
2022-08-10T10:32:26.959Z,101684.84
2022-08-10T10:35:55.903Z,101685.47
2022-08-10T10:39:00.061Z,101682.63
2022-08-10T10:42:45.331Z,101682.47
2022-08-10T10:46:24.424Z,101674.91
2022-08-10T10:49:38.568Z,101673.47
2022-08-10T10:53:21.282Z,101668.84
2022-08-10T10:56:32.057Z,101674.97
2022-08-10T10:59:56.401Z,101657.75
2022-08-10T11:03:17.361Z,101668.84
2022-08-10T11:06:40.534Z,101664.75
2022-08-10T11:10:06.030Z,101652.63
2022-08-10T11:14:27.237Z,101657.53
2022-08-10T11:17:00.069Z,101669.78
2022-08-10T11:20:20.683Z,101669.03
2022-08-10T11:23:31.588Z,101665.16
2022-08-10T11:26:47.984Z,101674.34
2022-08-10T11:30:10.605Z,101667.94
2022-08-10T11:34:47.135Z,101659.34
2022-08-10T11:38:30.923Z,101665.16
2022-08-10T11:41:14.679Z,101663.16
2022-08-10T11:44:45.491Z,101662.59
2022-08-10T11:47:57.009Z,101658.59
2022-08-10T11:51:04.272Z,101652.16
2022-08-10T11:54:12.684Z,101640.97
2022-08-10T11:57:16.004Z,101640.38
2022-08-10T12:00:19.822Z,101633.28
2022-08-10T12:03:22.608Z,101636.50
2022-08-10T12:06:53.597Z,101640.75
2022-08-10T12:10:09.138Z,101627.78
2022-08-10T12:13:22.286Z,101630.06
2022-08-10T12:16:28.488Z,101629.00
2022-08-10T12:19:59.836Z,101627.13
2022-08-10T12:23:22.688Z,101615.59
2022-08-10T12:26:32.802Z,101612.50
2022-08-10T12:29:43.053Z,101607.34
2022-08-10T12:32:56.529Z,101607.25
2022-08-10T12:36:19.003Z,101603.09
2022-08-10T12:39:27.356Z,101607.75
2022-08-10T12:44:03.761Z,101596.34
2022-08-10T12:46:41.611Z,101598.81
2022-08-10T12:50:30.805Z,101596.50
2022-08-10T12:54:03.338Z,101587.53
2022-08-10T12:57:09.993Z,101587.44
2022-08-10T13:00:17.579Z,101581.53
2022-08-10T13:04:21.365Z,101581.44
2022-08-10T13:06:49.728Z,101573.34
2022-08-10T13:09:56.518Z,101569.75
2022-08-10T13:13:00.313Z,101568.31
2022-08-10T13:16:03.692Z,101558.22
2022-08-10T13:19:08.011Z,101554.50
2022-08-10T13:22:12.413Z,101550.97
2022-08-10T13:25:20.793Z,101561.78
2022-08-10T13:28:39.912Z,101547.28
2022-08-10T13:32:03.843Z,101553.47
2022-08-10T13:35:12.126Z,101543.66
2022-08-10T13:38:19.545Z,101538.47
2022-08-10T13:41:29.648Z,101530.91
2022-08-10T13:44:32.825Z,101527.47
2022-08-10T13:47:37.262Z,101527.06
2022-08-10T13:50:57.998Z,101524.97
2022-08-10T13:54:01.697Z,101519.28
2022-08-10T13:57:07.733Z,101524.97
2022-08-10T14:00:37.665Z,101526.69
2022-08-10T14:03:42.961Z,101520.13
2022-08-10T14:06:52.262Z,101516.31
2022-08-10T14:10:01.973Z,101513.94
2022-08-10T14:13:06.520Z,101508.69
2022-08-10T14:16:09.278Z,101497.47
2022-08-10T14:19:16.128Z,101494.25
2022-08-10T14:22:19.644Z,101490.00
2022-08-10T14:25:56.515Z,101488.72
2022-08-10T14:29:10.684Z,101484.03
2022-08-10T14:32:25.793Z,101484.03
2022-08-10T14:36:20.426Z,101484.44
2022-08-10T14:38:53.871Z,101476.03
2022-08-10T14:42:01.593Z,101479.59
2022-08-10T14:45:19.312Z,101478.94
2022-08-10T14:48:32.026Z,101478.22
2022-08-10T14:51:44.534Z,101469.50
2022-08-10T14:54:50.497Z,101470.34
2022-08-10T14:58:19.621Z,101469.50
2022-08-10T15:01:19.455Z,101471.19
2022-08-10T15:04:24.979Z,101470.31
2022-08-10T15:07:30.271Z,101470.94
2022-08-10T15:10:32.263Z,101474.94
2022-08-10T15:13:35.279Z,101466.25
2022-08-10T15:16:37.631Z,101461.84
2022-08-10T15:20:04.523Z,101464.19
2022-08-10T15:23:30.820Z,101457.41
2022-08-10T15:26:35.700Z,101458.44
2022-08-10T15:29:57.203Z,101456.28
2022-08-10T15:33:59.516Z,101463.22
2022-08-10T15:37:40.536Z,101455.28
2022-08-10T15:40:37.436Z,101443.41
2022-08-10T15:43:54.966Z,101450.00
2022-08-10T15:47:02.364Z,101449.91
2022-08-10T15:50:17.952Z,101449.84
2022-08-10T15:53:27.909Z,101451.75
2022-08-10T15:56:43.503Z,101451.16
2022-08-10T15:59:56.996Z,101446.25
2022-08-10T16:03:17.118Z,101441.59
2022-08-10T16:06:32.527Z,101438.84
2022-08-10T16:10:22.008Z,101433.94
2022-08-10T16:13:50.581Z,101443.38
2022-08-10T16:16:36.725Z,101427.00
2022-08-10T16:19:48.664Z,101435.88
2022-08-10T16:22:53.684Z,101427.19
2022-08-10T16:26:04.792Z,101425.69
2022-08-10T16:29:22.656Z,101436.69
2022-08-10T16:32:26.376Z,101426.59
2022-08-10T16:35:29.383Z,101430.94
2022-08-10T16:38:39.507Z,101425.84
2022-08-10T16:42:03.177Z,101430.13
2022-08-10T16:45:08.842Z,101428.22
2022-08-10T16:48:11.330Z,101421.88
2022-08-10T16:51:18.930Z,101422.47
2022-08-10T16:54:27.403Z,101422.59
2022-08-10T16:57:30.518Z,101420.41
2022-08-10T17:00:33.214Z,101416.63
2022-08-10T17:04:06.253Z,101419.16
2022-08-10T17:07:08.534Z,101415.56
2022-08-10T17:10:16.347Z,101409.13
2022-08-10T17:13:22.589Z,101408.50
2022-08-10T17:16:25.782Z,101412.00
2022-08-10T17:19:30.064Z,101406.03
2022-08-10T17:22:36.288Z,101414.69
2022-08-10T17:25:48.697Z,101409.75
2022-08-10T17:28:56.399Z,101407.41
2022-08-10T17:32:14.613Z,101407.59
2022-08-10T17:35:23.475Z,101401.94
2022-08-10T17:38:28.998Z,101406.31
2022-08-10T17:41:35.277Z,101399.53
2022-08-10T17:44:40.164Z,101399.03
2022-08-10T17:47:48.844Z,101396.00
2022-08-10T17:50:51.840Z,101388.25
2022-08-10T17:53:58.304Z,101391.66
2022-08-10T17:57:04.173Z,101387.56
2022-08-10T18:00:12.806Z,101391.94
2022-08-10T18:03:27.306Z,101396.47
2022-08-10T18:06:30.974Z,101396.56
2022-08-10T18:09:35.659Z,101395.72
2022-08-10T18:12:47.672Z,101390.78
2022-08-10T18:15:50.657Z,101396.50
2022-08-10T18:18:58.416Z,101392.81
2022-08-10T18:22:03.650Z,101385.72
2022-08-10T18:25:07.228Z,101392.69
2022-08-10T18:28:15.045Z,101393.09
2022-08-10T18:31:20.645Z,101395.59
2022-08-10T18:34:26.974Z,101397.44
2022-08-10T18:37:34.234Z,101398.00
2022-08-10T18:40:38.482Z,101404.09
2022-08-10T18:44:05.657Z,101403.81
2022-08-10T18:47:17.846Z,101401.50
2022-08-10T18:50:26.334Z,101404.50
2022-08-10T18:53:39.017Z,101408.97
2022-08-10T18:56:54.034Z,101407.13
2022-08-10T19:00:07.944Z,101409.06
2022-08-10T19:03:54.482Z,101407.88
2022-08-10T19:07:22.849Z,101407.34
2022-08-10T19:10:52.569Z,101422.91
2022-08-10T19:14:12.655Z,101410.25
2022-08-10T19:18:05.858Z,101409.53
2022-08-10T19:21:11.362Z,101407.78
2022-08-10T19:24:24.790Z,101412.75
2022-08-10T19:28:00.810Z,101418.66
2022-08-10T19:31:44.306Z,101414.16
2022-08-10T19:34:58.207Z,101419.22
2022-08-10T19:38:16.912Z,101416.63
2022-08-10T19:41:21.578Z,101401.53
2022-08-10T19:45:00.112Z,101411.88
2022-08-10T19:48:01.722Z,101413.47
2022-08-10T19:51:30.116Z,101415.13
2022-08-10T19:54:55.632Z,101417.09
2022-08-10T19:58:15.853Z,101421.81
2022-08-10T20:01:19.267Z,101426.56
2022-08-10T20:04:34.380Z,101423.06
2022-08-10T20:07:53.901Z,101423.16
2022-08-10T20:11:07.410Z,101417.94
2022-08-10T20:14:29.642Z,101426.91
2022-08-10T20:17:51.153Z,101434.97
2022-08-10T20:21:16.715Z,101429.31
2022-08-10T20:24:59.245Z,101427.66
2022-08-10T20:28:32.638Z,101433.47
2022-08-10T20:31:44.584Z,101432.34
2022-08-10T20:34:51.682Z,101429.53
2022-08-10T20:38:08.241Z,101425.00
2022-08-10T20:41:33.373Z,101427.47
2022-08-10T20:44:50.621Z,101431.09
2022-08-10T20:48:15.457Z,101431.69
2022-08-10T20:51:59.474Z,101429.16
2022-08-10T20:54:52.237Z,101433.66
2022-08-10T20:58:06.798Z,101427.81
2022-08-10T21:02:07.439Z,101425.78
2022-08-10T21:05:19.448Z,101432.81
2022-08-10T21:08:36.671Z,101442.28
2022-08-10T21:11:47.192Z,101432.97
2022-08-10T21:15:26.227Z,101430.25
2022-08-10T21:18:52.029Z,101432.56
2022-08-10T21:22:29.420Z,101432.44
2022-08-10T21:25:43.970Z,101434.00
2022-08-10T21:29:19.578Z,101433.47
2022-08-10T21:32:49.399Z,101432.47
2022-08-10T21:36:08.715Z,101424.75
2022-08-10T21:39:43.090Z,101431.47
2022-08-10T21:43:44.046Z,101423.91
2022-08-10T21:47:39.627Z,101426.03
2022-08-10T21:51:23.950Z,101423.75
2022-08-10T21:54:56.227Z,101430.47
2022-08-10T21:58:30.847Z,101428.34
2022-08-10T22:01:55.730Z,101434.19
2022-08-10T22:05:20.555Z,101432.72
2022-08-10T22:08:47.889Z,101424.13
2022-08-10T22:12:10.593Z,101426.41
2022-08-10T22:16:09.950Z,101422.53
2022-08-10T22:19:33.546Z,101426.56
2022-08-10T22:23:19.230Z,101425.84
2022-08-10T22:27:04.632Z,101428.09
2022-08-10T22:30:26.551Z,101420.53
2022-08-10T22:34:10.804Z,101416.25
2022-08-10T22:37:53.201Z,101428.50
2022-08-10T22:41:34.071Z,101428.34
2022-08-10T22:45:01.309Z,101430.75
2022-08-10T22:48:24.521Z,101428.75
2022-08-10T22:51:28.921Z,101424.69
2022-08-10T22:54:52.096Z,101425.13
2022-08-10T22:58:12.218Z,101420.09
2022-08-10T23:01:40.623Z,101421.38
2022-08-10T23:04:53.335Z,101422.50
2022-08-10T23:08:01.842Z,101416.50
2022-08-10T23:11:07.370Z,101426.75
2022-08-10T23:14:15.141Z,101420.84
2022-08-10T23:18:00.824Z,101418.56
2022-08-10T23:21:06.466Z,101412.66
2022-08-10T23:24:09.552Z,101412.34
2022-08-10T23:27:38.055Z,101413.75
2022-08-10T23:30:37.935Z,101409.72
2022-08-10T23:33:47.379Z,101419.22
2022-08-10T23:36:51.838Z,101413.09
2022-08-10T23:39:55.457Z,101410.63
2022-08-10T23:42:59.351Z,101409.03
2022-08-10T23:46:04.069Z,101411.06
2022-08-10T23:49:07.612Z,101411.56
2022-08-10T23:52:19.813Z,101412.84
2022-08-10T23:55:25.118Z,101404.38
2022-08-10T23:58:34.050Z,101411.91
